sensor_id;sensor_type;location;lat;lon;timestamp;P1;durP1;ratioP1;P2;durP2;ratioP2
22205;SDS011;11272;50.104;8.754;2024-03-29T00:01:24;5.50;;;1.40;;
22205;SDS011;11272;50.104;8.754;2024-03-29T00:03:53;3.43;;;1.10;;
22205;SDS011;11272;50.104;8.754;2024-03-29T00:06:19;7.17;;;1.47;;
22205;SDS011;11272;50.104;8.754;2024-03-29T00:08:49;2.67;;;1.40;;
22205;SDS011;11272;50.104;8.754;2024-03-29T00:14:12;5.27;;;1.50;;
22205;SDS011;11272;50.104;8.754;2024-03-29T00:16:38;6.43;;;1.80;;
22205;SDS011;11272;50.104;8.754;2024-03-29T00:19:03;5.13;;;2.20;;
22205;SDS011;11272;50.104;8.754;2024-03-29T00:21:31;6.93;;;2.10;;
22205;SDS011;11272;50.104;8.754;2024-03-29T00:23:56;8.87;;;1.63;;
22205;SDS011;11272;50.104;8.754;2024-03-29T00:26:22;3.73;;;1.50;;
22205;SDS011;11272;50.104;8.754;2024-03-29T00:28:47;2.27;;;1.60;;
22205;SDS011;11272;50.104;8.754;2024-03-29T00:31:13;4.87;;;1.53;;
22205;SDS011;11272;50.104;8.754;2024-03-29T00:36:34;3.63;;;1.63;;
22205;SDS011;11272;50.104;8.754;2024-03-29T00:39:00;3.73;;;1.50;;
22205;SDS011;11272;50.104;8.754;2024-03-29T00:41:28;7.63;;;2.17;;
22205;SDS011;11272;50.104;8.754;2024-03-29T00:43:53;7.13;;;1.80;;
22205;SDS011;11272;50.104;8.754;2024-03-29T00:46:19;4.93;;;1.60;;
22205;SDS011;11272;50.104;8.754;2024-03-29T00:48:44;2.53;;;1.40;;
22205;SDS011;11272;50.104;8.754;2024-03-29T00:51:12;5.40;;;1.80;;
22205;SDS011;11272;50.104;8.754;2024-03-29T00:56:26;3.53;;;1.70;;
22205;SDS011;11272;50.104;8.754;2024-03-29T01:01:54;6.40;;;1.90;;
22205;SDS011;11272;50.104;8.754;2024-03-29T01:13:07;7.23;;;2.50;;
22205;SDS011;11272;50.104;8.754;2024-03-29T01:15:33;9.87;;;3.17;;
22205;SDS011;11272;50.104;8.754;2024-03-29T01:17:58;5.67;;;2.47;;
22205;SDS011;11272;50.104;8.754;2024-03-29T01:20:24;6.47;;;3.00;;
22205;SDS011;11272;50.104;8.754;2024-03-29T01:22:49;5.30;;;1.87;;
22205;SDS011;11272;50.104;8.754;2024-03-29T01:25:15;3.00;;;1.87;;
22205;SDS011;11272;50.104;8.754;2024-03-29T01:27:42;4.83;;;1.80;;
22205;SDS011;11272;50.104;8.754;2024-03-29T01:30:09;4.00;;;2.20;;
22205;SDS011;11272;50.104;8.754;2024-03-29T01:32:34;5.57;;;1.97;;
22205;SDS011;11272;50.104;8.754;2024-03-29T01:35:00;4.37;;;1.73;;
22205;SDS011;11272;50.104;8.754;2024-03-29T01:37:25;4.70;;;1.70;;
22205;SDS011;11272;50.104;8.754;2024-03-29T01:39:51;3.53;;;1.60;;
22205;SDS011;11272;50.104;8.754;2024-03-29T01:42:17;5.60;;;1.80;;
22205;SDS011;11272;50.104;8.754;2024-03-29T01:44:42;4.63;;;1.40;;
22205;SDS011;11272;50.104;8.754;2024-03-29T01:47:08;3.33;;;1.43;;
22205;SDS011;11272;50.104;8.754;2024-03-29T01:49:33;4.93;;;1.47;;
22205;SDS011;11272;50.104;8.754;2024-03-29T01:51:59;3.13;;;1.43;;
22205;SDS011;11272;50.104;8.754;2024-03-29T01:54:25;3.27;;;1.27;;
22205;SDS011;11272;50.104;8.754;2024-03-29T01:56:50;4.07;;;1.40;;
22205;SDS011;11272;50.104;8.754;2024-03-29T01:59:17;2.17;;;1.37;;
22205;SDS011;11272;50.104;8.754;2024-03-29T02:01:45;4.63;;;1.30;;
22205;SDS011;11272;50.104;8.754;2024-03-29T02:04:11;3.43;;;1.50;;
22205;SDS011;11272;50.104;8.754;2024-03-29T02:06:37;2.17;;;1.40;;
22205;SDS011;11272;50.104;8.754;2024-03-29T02:09:06;6.00;;;1.90;;
22205;SDS011;11272;50.104;8.754;2024-03-29T02:11:31;5.60;;;1.50;;
22205;SDS011;11272;50.104;8.754;2024-03-29T02:13:57;3.33;;;1.27;;
22205;SDS011;11272;50.104;8.754;2024-03-29T02:16:23;3.60;;;1.50;;
22205;SDS011;11272;50.104;8.754;2024-03-29T02:18:49;5.23;;;1.53;;
22205;SDS011;11272;50.104;8.754;2024-03-29T02:21:14;1.37;;;1.20;;
22205;SDS011;11272;50.104;8.754;2024-03-29T02:23:43;3.30;;;1.70;;
22205;SDS011;11272;50.104;8.754;2024-03-29T02:26:11;1.93;;;1.30;;
22205;SDS011;11272;50.104;8.754;2024-03-29T02:28:37;4.83;;;1.67;;
22205;SDS011;11272;50.104;8.754;2024-03-29T02:31:03;5.03;;;1.33;;
22205;SDS011;11272;50.104;8.754;2024-03-29T02:33:29;2.17;;;1.33;;
22205;SDS011;11272;50.104;8.754;2024-03-29T02:35:54;1.00;;;0.90;;
22205;SDS011;11272;50.104;8.754;2024-03-29T02:38:20;3.53;;;1.40;;
22205;SDS011;11272;50.104;8.754;2024-03-29T02:40:46;1.93;;;0.90;;
22205;SDS011;11272;50.104;8.754;2024-03-29T02:43:11;2.63;;;1.20;;
22205;SDS011;11272;50.104;8.754;2024-03-29T02:45:37;4.83;;;1.47;;
22205;SDS011;11272;50.104;8.754;2024-03-29T02:48:03;2.17;;;1.00;;
22205;SDS011;11272;50.104;8.754;2024-03-29T02:50:29;4.50;;;1.33;;
22205;SDS011;11272;50.104;8.754;2024-03-29T02:52:54;6.80;;;1.40;;
22205;SDS011;11272;50.104;8.754;2024-03-29T02:55:20;5.00;;;1.50;;
22205;SDS011;11272;50.104;8.754;2024-03-29T02:57:45;1.63;;;1.23;;
22205;SDS011;11272;50.104;8.754;2024-03-29T03:00:11;2.17;;;1.27;;
22205;SDS011;11272;50.104;8.754;2024-03-29T03:02:37;3.20;;;1.10;;
22205;SDS011;11272;50.104;8.754;2024-03-29T03:05:04;2.60;;;1.33;;
22205;SDS011;11272;50.104;8.754;2024-03-29T03:07:30;2.23;;;1.03;;
22205;SDS011;11272;50.104;8.754;2024-03-29T03:10:15;5.87;;;1.17;;
22205;SDS011;11272;50.104;8.754;2024-03-29T03:12:59;1.73;;;1.00;;
22205;SDS011;11272;50.104;8.754;2024-03-29T03:15:24;3.50;;;1.33;;
22205;SDS011;11272;50.104;8.754;2024-03-29T03:17:50;2.77;;;1.20;;
22205;SDS011;11272;50.104;8.754;2024-03-29T03:20:15;3.70;;;1.00;;
22205;SDS011;11272;50.104;8.754;2024-03-29T03:22:43;1.50;;;0.90;;
22205;SDS011;11272;50.104;8.754;2024-03-29T03:25:08;2.03;;;1.23;;
22205;SDS011;11272;50.104;8.754;2024-03-29T03:27:34;1.70;;;0.80;;
22205;SDS011;11272;50.104;8.754;2024-03-29T03:29:59;1.43;;;1.10;;
22205;SDS011;11272;50.104;8.754;2024-03-29T03:32:25;2.57;;;1.80;;
22205;SDS011;11272;50.104;8.754;2024-03-29T03:34:51;2.47;;;1.10;;
22205;SDS011;11272;50.104;8.754;2024-03-29T03:37:16;2.40;;;0.80;;
22205;SDS011;11272;50.104;8.754;2024-03-29T03:39:42;2.87;;;1.00;;
22205;SDS011;11272;50.104;8.754;2024-03-29T03:42:07;1.00;;;0.80;;
22205;SDS011;11272;50.104;8.754;2024-03-29T03:44:33;2.17;;;1.00;;
22205;SDS011;11272;50.104;8.754;2024-03-29T03:46:58;3.67;;;1.20;;
22205;SDS011;11272;50.104;8.754;2024-03-29T03:49:24;2.83;;;1.13;;
22205;SDS011;11272;50.104;8.754;2024-03-29T03:51:49;2.00;;;0.83;;
22205;SDS011;11272;50.104;8.754;2024-03-29T03:54:15;3.03;;;1.23;;
22205;SDS011;11272;50.104;8.754;2024-03-29T03:56:40;2.33;;;1.13;;
22205;SDS011;11272;50.104;8.754;2024-03-29T04:06:02;2.83;;;1.00;;
22205;SDS011;11272;50.104;8.754;2024-03-29T04:09:06;3.13;;;0.93;;
22205;SDS011;11272;50.104;8.754;2024-03-29T04:11:31;3.60;;;1.50;;
22205;SDS011;11272;50.104;8.754;2024-03-29T04:13:57;8.37;;;1.20;;
22205;SDS011;11272;50.104;8.754;2024-03-29T04:16:23;4.20;;;1.00;;
22205;SDS011;11272;50.104;8.754;2024-03-29T04:18:48;3.93;;;1.27;;
22205;SDS011;11272;50.104;8.754;2024-03-29T04:21:14;7.13;;;1.20;;
22205;SDS011;11272;50.104;8.754;2024-03-29T04:23:39;3.60;;;1.27;;
22205;SDS011;11272;50.104;8.754;2024-03-29T04:26:10;4.73;;;1.30;;
22205;SDS011;11272;50.104;8.754;2024-03-29T04:28:38;2.37;;;1.10;;
22205;SDS011;11272;50.104;8.754;2024-03-29T04:31:03;2.40;;;1.00;;
22205;SDS011;11272;50.104;8.754;2024-03-29T04:33:31;2.43;;;1.00;;
22205;SDS011;11272;50.104;8.754;2024-03-29T04:35:58;5.93;;;1.50;;
22205;SDS011;11272;50.104;8.754;2024-03-29T04:38:26;2.30;;;1.07;;
22205;SDS011;11272;50.104;8.754;2024-03-29T04:40:55;3.53;;;1.10;;
22205;SDS011;11272;50.104;8.754;2024-03-29T04:43:25;3.13;;;1.10;;
22205;SDS011;11272;50.104;8.754;2024-03-29T04:46:12;3.67;;;1.40;;
22205;SDS011;11272;50.104;8.754;2024-03-29T04:48:39;3.07;;;1.17;;
22205;SDS011;11272;50.104;8.754;2024-03-29T04:51:06;3.23;;;1.37;;
22205;SDS011;11272;50.104;8.754;2024-03-29T04:53:36;1.97;;;1.10;;
22205;SDS011;11272;50.104;8.754;2024-03-29T04:56:04;2.37;;;1.20;;
22205;SDS011;11272;50.104;8.754;2024-03-29T05:01:18;2.10;;;1.10;;
22205;SDS011;11272;50.104;8.754;2024-03-29T05:03:45;5.60;;;1.40;;
22205;SDS011;11272;50.104;8.754;2024-03-29T05:06:14;2.57;;;1.37;;
22205;SDS011;11272;50.104;8.754;2024-03-29T05:08:41;2.00;;;1.00;;
22205;SDS011;11272;50.104;8.754;2024-03-29T05:11:07;6.13;;;1.43;;
22205;SDS011;11272;50.104;8.754;2024-03-29T05:13:39;3.87;;;1.70;;
22205;SDS011;11272;50.104;8.754;2024-03-29T05:18:51;5.47;;;1.50;;
22205;SDS011;11272;50.104;8.754;2024-03-29T05:21:17;2.27;;;1.43;;
22205;SDS011;11272;50.104;8.754;2024-03-29T05:23:45;7.73;;;1.67;;
22205;SDS011;11272;50.104;8.754;2024-03-29T05:26:10;4.00;;;1.50;;
22205;SDS011;11272;50.104;8.754;2024-03-29T05:31:41;4.67;;;1.30;;
22205;SDS011;11272;50.104;8.754;2024-03-29T05:34:11;3.90;;;1.47;;
22205;SDS011;11272;50.104;8.754;2024-03-29T05:36:44;4.03;;;1.73;;
22205;SDS011;11272;50.104;8.754;2024-03-29T05:39:10;2.30;;;1.50;;
22205;SDS011;11272;50.104;8.754;2024-03-29T05:41:41;5.60;;;1.27;;
22205;SDS011;11272;50.104;8.754;2024-03-29T05:44:06;2.10;;;1.30;;
22205;SDS011;11272;50.104;8.754;2024-03-29T05:46:36;2.73;;;1.20;;
22205;SDS011;11272;50.104;8.754;2024-03-29T05:49:03;1.87;;;1.40;;
22205;SDS011;11272;50.104;8.754;2024-03-29T05:51:46;4.23;;;1.17;;
22205;SDS011;11272;50.104;8.754;2024-03-29T05:54:14;4.13;;;1.43;;
22205;SDS011;11272;50.104;8.754;2024-03-29T05:56:40;2.80;;;1.20;;
22205;SDS011;11272;50.104;8.754;2024-03-29T05:59:07;3.57;;;1.20;;
22205;SDS011;11272;50.104;8.754;2024-03-29T06:01:37;5.43;;;1.50;;
22205;SDS011;11272;50.104;8.754;2024-03-29T06:04:02;2.17;;;1.10;;
22205;SDS011;11272;50.104;8.754;2024-03-29T06:09:23;2.90;;;1.10;;
22205;SDS011;11272;50.104;8.754;2024-03-29T06:11:48;1.80;;;1.03;;
22205;SDS011;11272;50.104;8.754;2024-03-29T06:14:24;3.60;;;1.13;;
22205;SDS011;11272;50.104;8.754;2024-03-29T06:17:11;4.27;;;1.10;;
22205;SDS011;11272;50.104;8.754;2024-03-29T06:19:53;2.50;;;1.10;;
22205;SDS011;11272;50.104;8.754;2024-03-29T06:22:25;3.13;;;0.90;;
22205;SDS011;11272;50.104;8.754;2024-03-29T06:24:55;2.47;;;1.07;;
22205;SDS011;11272;50.104;8.754;2024-03-29T06:27:26;2.13;;;1.10;;
22205;SDS011;11272;50.104;8.754;2024-03-29T06:29:54;2.47;;;1.00;;
22205;SDS011;11272;50.104;8.754;2024-03-29T06:32:22;3.80;;;1.00;;
22205;SDS011;11272;50.104;8.754;2024-03-29T06:34:47;2.77;;;0.97;;
22205;SDS011;11272;50.104;8.754;2024-03-29T06:37:17;1.63;;;0.90;;
22205;SDS011;11272;50.104;8.754;2024-03-29T06:39:51;2.77;;;0.90;;
22205;SDS011;11272;50.104;8.754;2024-03-29T06:42:20;2.87;;;0.90;;
22205;SDS011;11272;50.104;8.754;2024-03-29T06:44:54;1.87;;;0.90;;
22205;SDS011;11272;50.104;8.754;2024-03-29T06:47:20;4.30;;;0.97;;
22205;SDS011;11272;50.104;8.754;2024-03-29T06:49:48;1.10;;;0.97;;
22205;SDS011;11272;50.104;8.754;2024-03-29T06:52:17;2.60;;;0.97;;
22205;SDS011;11272;50.104;8.754;2024-03-29T06:54:45;3.47;;;1.20;;
22205;SDS011;11272;50.104;8.754;2024-03-29T07:00:18;3.10;;;1.20;;
22205;SDS011;11272;50.104;8.754;2024-03-29T07:05:34;7.27;;;1.17;;
22205;SDS011;11272;50.104;8.754;2024-03-29T07:07:59;2.80;;;1.10;;
22205;SDS011;11272;50.104;8.754;2024-03-29T07:10:26;1.80;;;1.00;;
22205;SDS011;11272;50.104;8.754;2024-03-29T07:12:55;2.87;;;1.20;;
22205;SDS011;11272;50.104;8.754;2024-03-29T07:15:22;4.07;;;1.00;;
22205;SDS011;11272;50.104;8.754;2024-03-29T07:17:48;3.50;;;1.50;;
22205;SDS011;11272;50.104;8.754;2024-03-29T07:20:17;3.77;;;1.20;;
22205;SDS011;11272;50.104;8.754;2024-03-29T07:22:43;6.47;;;1.30;;
22205;SDS011;11272;50.104;8.754;2024-03-29T07:25:13;2.57;;;1.27;;
22205;SDS011;11272;50.104;8.754;2024-03-29T07:27:49;2.83;;;1.17;;
22205;SDS011;11272;50.104;8.754;2024-03-29T07:30:17;1.40;;;1.03;;
22205;SDS011;11272;50.104;8.754;2024-03-29T07:32:42;3.03;;;1.27;;
22205;SDS011;11272;50.104;8.754;2024-03-29T07:35:11;2.70;;;1.50;;
22205;SDS011;11272;50.104;8.754;2024-03-29T07:37:43;2.47;;;1.20;;
22205;SDS011;11272;50.104;8.754;2024-03-29T07:40:13;2.80;;;1.30;;
22205;SDS011;11272;50.104;8.754;2024-03-29T07:42:39;3.40;;;1.20;;
22205;SDS011;11272;50.104;8.754;2024-03-29T07:45:07;3.17;;;1.30;;
22205;SDS011;11272;50.104;8.754;2024-03-29T07:47:33;4.00;;;1.50;;
22205;SDS011;11272;50.104;8.754;2024-03-29T07:50:01;3.83;;;1.67;;
22205;SDS011;11272;50.104;8.754;2024-03-29T07:52:27;2.43;;;1.60;;
22205;SDS011;11272;50.104;8.754;2024-03-29T07:54:56;4.27;;;1.60;;
22205;SDS011;11272;50.104;8.754;2024-03-29T07:57:24;5.40;;;1.60;;
22205;SDS011;11272;50.104;8.754;2024-03-29T07:59:54;4.63;;;1.30;;
22205;SDS011;11272;50.104;8.754;2024-03-29T08:02:19;5.30;;;1.80;;
22205;SDS011;11272;50.104;8.754;2024-03-29T08:04:47;3.67;;;1.60;;
22205;SDS011;11272;50.104;8.754;2024-03-29T08:10:19;5.22;;;1.75;;
22205;SDS011;11272;50.104;8.754;2024-03-29T08:15:44;1.90;;;1.70;;
22205;SDS011;11272;50.104;8.754;2024-03-29T08:18:12;5.47;;;2.00;;
22205;SDS011;11272;50.104;8.754;2024-03-29T08:23:42;3.50;;;1.90;;
22205;SDS011;11272;50.104;8.754;2024-03-29T08:26:12;4.23;;;1.90;;
22205;SDS011;11272;50.104;8.754;2024-03-29T08:28:37;3.17;;;1.80;;
22205;SDS011;11272;50.104;8.754;2024-03-29T08:31:05;7.43;;;2.10;;
22205;SDS011;11272;50.104;8.754;2024-03-29T08:33:35;4.03;;;2.20;;
22205;SDS011;11272;50.104;8.754;2024-03-29T08:36:04;4.80;;;2.07;;
22205;SDS011;11272;50.104;8.754;2024-03-29T08:38:33;3.83;;;2.23;;
22205;SDS011;11272;50.104;8.754;2024-03-29T08:40:59;4.47;;;2.20;;
22205;SDS011;11272;50.104;8.754;2024-03-29T08:43:25;3.37;;;1.90;;
22205;SDS011;11272;50.104;8.754;2024-03-29T08:45:55;2.57;;;1.60;;
22205;SDS011;11272;50.104;8.754;2024-03-29T08:51:09;7.50;;;1.87;;
22205;SDS011;11272;50.104;8.754;2024-03-29T09:17:00;7.50;;;2.00;;
22205;SDS011;11272;50.104;8.754;2024-03-29T09:19:32;5.57;;;1.70;;
22205;SDS011;11272;50.104;8.754;2024-03-29T09:24:54;4.17;;;1.97;;
22205;SDS011;11272;50.104;8.754;2024-03-29T09:30:11;8.00;;;2.00;;
22205;SDS011;11272;50.104;8.754;2024-03-29T09:49:35;7.73;;;1.73;;
22205;SDS011;11272;50.104;8.754;2024-03-29T09:52:24;4.07;;;2.07;;
22205;SDS011;11272;50.104;8.754;2024-03-29T09:57:49;3.53;;;1.93;;
22205;SDS011;11272;50.104;8.754;2024-03-29T10:03:08;4.23;;;1.73;;
22205;SDS011;11272;50.104;8.754;2024-03-29T10:05:36;3.87;;;1.50;;
22205;SDS011;11272;50.104;8.754;2024-03-29T10:08:04;7.17;;;1.80;;
22205;SDS011;11272;50.104;8.754;2024-03-29T10:13:14;3.07;;;1.70;;
22205;SDS011;11272;50.104;8.754;2024-03-29T10:15:40;2.83;;;1.80;;
22205;SDS011;11272;50.104;8.754;2024-03-29T10:18:12;4.57;;;1.73;;
22205;SDS011;11272;50.104;8.754;2024-03-29T10:23:35;3.87;;;2.03;;
22205;SDS011;11272;50.104;8.754;2024-03-29T10:26:01;3.70;;;1.97;;
22205;SDS011;11272;50.104;8.754;2024-03-29T10:28:30;4.67;;;2.17;;
22205;SDS011;11272;50.104;8.754;2024-03-29T10:31:01;5.60;;;1.83;;
22205;SDS011;11272;50.104;8.754;2024-03-29T10:33:32;4.90;;;1.90;;
22205;SDS011;11272;50.104;8.754;2024-03-29T10:36:01;2.27;;;1.67;;
22205;SDS011;11272;50.104;8.754;2024-03-29T10:38:31;3.27;;;2.00;;
22205;SDS011;11272;50.104;8.754;2024-03-29T10:40:59;4.53;;;2.00;;
22205;SDS011;11272;50.104;8.754;2024-03-29T10:43:28;3.00;;;1.90;;
22205;SDS011;11272;50.104;8.754;2024-03-29T10:45:55;4.43;;;2.00;;
22205;SDS011;11272;50.104;8.754;2024-03-29T10:48:25;3.43;;;2.03;;
22205;SDS011;11272;50.104;8.754;2024-03-29T10:50:54;4.27;;;1.73;;
22205;SDS011;11272;50.104;8.754;2024-03-29T10:53:23;4.10;;;1.70;;
22205;SDS011;11272;50.104;8.754;2024-03-29T10:55:53;4.50;;;1.83;;
22205;SDS011;11272;50.104;8.754;2024-03-29T10:58:30;2.90;;;1.97;;
22205;SDS011;11272;50.104;8.754;2024-03-29T11:00:58;5.53;;;2.10;;
22205;SDS011;11272;50.104;8.754;2024-03-29T11:03:32;4.73;;;1.70;;
22205;SDS011;11272;50.104;8.754;2024-03-29T11:06:03;5.80;;;2.07;;
22205;SDS011;11272;50.104;8.754;2024-03-29T11:11:35;7.40;;;2.50;;
22205;SDS011;11272;50.104;8.754;2024-03-29T11:16:54;4.17;;;2.90;;
22205;SDS011;11272;50.104;8.754;2024-03-29T11:19:24;4.67;;;2.50;;
22205;SDS011;11272;50.104;8.754;2024-03-29T11:21:55;4.97;;;2.63;;
22205;SDS011;11272;50.104;8.754;2024-03-29T11:24:22;3.87;;;2.57;;
22205;SDS011;11272;50.104;8.754;2024-03-29T11:26:52;7.37;;;2.47;;
22205;SDS011;11272;50.104;8.754;2024-03-29T11:29:28;5.87;;;2.60;;
22205;SDS011;11272;50.104;8.754;2024-03-29T11:32:00;4.77;;;2.57;;
22205;SDS011;11272;50.104;8.754;2024-03-29T11:34:28;3.40;;;2.10;;
22205;SDS011;11272;50.104;8.754;2024-03-29T11:37:05;5.50;;;2.50;;
22205;SDS011;11272;50.104;8.754;2024-03-29T11:39:34;4.73;;;2.40;;
22205;SDS011;11272;50.104;8.754;2024-03-29T11:42:00;6.70;;;2.23;;
22205;SDS011;11272;50.104;8.754;2024-03-29T11:47:16;3.27;;;2.17;;
22205;SDS011;11272;50.104;8.754;2024-03-29T11:49:43;3.30;;;2.20;;
22205;SDS011;11272;50.104;8.754;2024-03-29T11:52:11;5.87;;;2.57;;
22205;SDS011;11272;50.104;8.754;2024-03-29T11:54:43;4.63;;;2.33;;
22205;SDS011;11272;50.104;8.754;2024-03-29T11:57:09;3.90;;;2.70;;
22205;SDS011;11272;50.104;8.754;2024-03-29T11:59:43;5.47;;;2.20;;
22205;SDS011;11272;50.104;8.754;2024-03-29T12:02:11;6.07;;;2.33;;
22205;SDS011;11272;50.104;8.754;2024-03-29T12:04:43;6.27;;;2.37;;
22205;SDS011;11272;50.104;8.754;2024-03-29T12:07:17;4.03;;;2.50;;
22205;SDS011;11272;50.104;8.754;2024-03-29T12:09:45;4.40;;;2.10;;
22205;SDS011;11272;50.104;8.754;2024-03-29T12:12:13;5.33;;;2.43;;
22205;SDS011;11272;50.104;8.754;2024-03-29T12:14:45;6.60;;;2.43;;
22205;SDS011;11272;50.104;8.754;2024-03-29T12:17:15;5.27;;;2.77;;
22205;SDS011;11272;50.104;8.754;2024-03-29T12:19:46;5.20;;;3.10;;
22205;SDS011;11272;50.104;8.754;2024-03-29T12:22:13;6.57;;;2.80;;
22205;SDS011;11272;50.104;8.754;2024-03-29T12:24:42;7.93;;;3.23;;
22205;SDS011;11272;50.104;8.754;2024-03-29T12:27:12;6.10;;;3.30;;
22205;SDS011;11272;50.104;8.754;2024-03-29T12:29:40;5.27;;;3.50;;
22205;SDS011;11272;50.104;8.754;2024-03-29T12:32:07;5.77;;;3.53;;
22205;SDS011;11272;50.104;8.754;2024-03-29T12:34:37;8.07;;;4.40;;
22205;SDS011;11272;50.104;8.754;2024-03-29T12:37:02;7.50;;;4.33;;
22205;SDS011;11272;50.104;8.754;2024-03-29T12:39:30;6.20;;;3.70;;
22205;SDS011;11272;50.104;8.754;2024-03-29T12:42:07;5.90;;;4.13;;
22205;SDS011;11272;50.104;8.754;2024-03-29T12:44:40;6.90;;;4.13;;
22205;SDS011;11272;50.104;8.754;2024-03-29T12:47:14;6.23;;;4.20;;
22205;SDS011;11272;50.104;8.754;2024-03-29T12:49:40;5.67;;;4.03;;
22205;SDS011;11272;50.104;8.754;2024-03-29T12:52:11;7.60;;;3.50;;
22205;SDS011;11272;50.104;8.754;2024-03-29T12:54:38;6.37;;;3.80;;
22205;SDS011;11272;50.104;8.754;2024-03-29T12:57:04;7.27;;;3.60;;
22205;SDS011;11272;50.104;8.754;2024-03-29T13:02:37;6.00;;;3.90;;
22205;SDS011;11272;50.104;8.754;2024-03-29T13:10:43;9.97;;;4.50;;
22205;SDS011;11272;50.104;8.754;2024-03-29T13:25:12;5.43;;;4.00;;
22205;SDS011;11272;50.104;8.754;2024-03-29T13:33:37;6.83;;;3.63;;
22205;SDS011;11272;50.104;8.754;2024-03-29T13:36:03;5.80;;;3.40;;
22205;SDS011;11272;50.104;8.754;2024-03-29T13:38:32;6.97;;;2.87;;
22205;SDS011;11272;50.104;8.754;2024-03-29T13:41:03;4.97;;;2.90;;
22205;SDS011;11272;50.104;8.754;2024-03-29T13:43:35;8.63;;;2.73;;
22205;SDS011;11272;50.104;8.754;2024-03-29T13:46:26;4.47;;;2.07;;
22205;SDS011;11272;50.104;8.754;2024-03-29T13:48:55;6.53;;;2.23;;
22205;SDS011;11272;50.104;8.754;2024-03-29T13:51:21;3.23;;;2.20;;
22205;SDS011;11272;50.104;8.754;2024-03-29T13:53:48;4.17;;;2.27;;
22205;SDS011;11272;50.104;8.754;2024-03-29T13:56:13;3.57;;;1.77;;
22205;SDS011;11272;50.104;8.754;2024-03-29T13:58:42;6.27;;;1.87;;
22205;SDS011;11272;50.104;8.754;2024-03-29T14:01:09;4.33;;;2.43;;
22205;SDS011;11272;50.104;8.754;2024-03-29T14:03:40;6.00;;;2.60;;
22205;SDS011;11272;50.104;8.754;2024-03-29T14:06:07;4.77;;;2.17;;
22205;SDS011;11272;50.104;8.754;2024-03-29T14:08:33;4.17;;;1.60;;
22205;SDS011;11272;50.104;8.754;2024-03-29T14:11:01;5.00;;;2.10;;
22205;SDS011;11272;50.104;8.754;2024-03-29T14:13:35;6.23;;;2.20;;
22205;SDS011;11272;50.104;8.754;2024-03-29T14:16:00;3.73;;;2.53;;
22205;SDS011;11272;50.104;8.754;2024-03-29T14:18:28;6.87;;;2.47;;
22205;SDS011;11272;50.104;8.754;2024-03-29T14:20:59;3.73;;;2.20;;
22205;SDS011;11272;50.104;8.754;2024-03-29T14:23:25;3.30;;;2.13;;
22205;SDS011;11272;50.104;8.754;2024-03-29T14:25:52;5.63;;;1.90;;
22205;SDS011;11272;50.104;8.754;2024-03-29T14:28:18;3.20;;;1.67;;
22205;SDS011;11272;50.104;8.754;2024-03-29T14:30:52;6.13;;;2.03;;
22205;SDS011;11272;50.104;8.754;2024-03-29T14:33:26;2.53;;;1.60;;
22205;SDS011;11272;50.104;8.754;2024-03-29T14:35:53;6.23;;;2.10;;
22205;SDS011;11272;50.104;8.754;2024-03-29T14:38:21;7.57;;;2.30;;
22205;SDS011;11272;50.104;8.754;2024-03-29T14:40:50;3.13;;;1.83;;
22205;SDS011;11272;50.104;8.754;2024-03-29T14:43:17;2.67;;;1.80;;
22205;SDS011;11272;50.104;8.754;2024-03-29T14:48:54;4.07;;;2.20;;
22205;SDS011;11272;50.104;8.754;2024-03-29T14:51:22;3.83;;;1.93;;
22205;SDS011;11272;50.104;8.754;2024-03-29T14:56:36;2.80;;;1.87;;
22205;SDS011;11272;50.104;8.754;2024-03-29T14:59:18;4.10;;;1.90;;
22205;SDS011;11272;50.104;8.754;2024-03-29T15:01:46;2.93;;;1.70;;
22205;SDS011;11272;50.104;8.754;2024-03-29T15:04:15;2.57;;;1.60;;
22205;SDS011;11272;50.104;8.754;2024-03-29T15:09:51;2.13;;;1.30;;
22205;SDS011;11272;50.104;8.754;2024-03-29T15:15:17;3.30;;;1.50;;
22205;SDS011;11272;50.104;8.754;2024-03-29T15:20:37;5.93;;;2.00;;
22205;SDS011;11272;50.104;8.754;2024-03-29T15:23:05;2.80;;;1.90;;
22205;SDS011;11272;50.104;8.754;2024-03-29T15:25:33;4.07;;;2.20;;
22205;SDS011;11272;50.104;8.754;2024-03-29T15:28:07;2.23;;;1.80;;
22205;SDS011;11272;50.104;8.754;2024-03-29T15:33:53;2.77;;;2.03;;
22205;SDS011;11272;50.104;8.754;2024-03-29T15:36:20;3.07;;;2.00;;
22205;SDS011;11272;50.104;8.754;2024-03-29T15:38:50;4.50;;;1.63;;
22205;SDS011;11272;50.104;8.754;2024-03-29T15:41:19;2.70;;;1.80;;
22205;SDS011;11272;50.104;8.754;2024-03-29T15:43:45;3.67;;;1.80;;
22205;SDS011;11272;50.104;8.754;2024-03-29T15:46:16;2.90;;;1.60;;
22205;SDS011;11272;50.104;8.754;2024-03-29T15:48:41;1.20;;;1.10;;
22205;SDS011;11272;50.104;8.754;2024-03-29T15:51:07;2.30;;;1.53;;
22205;SDS011;11272;50.104;8.754;2024-03-29T15:53:38;1.97;;;1.20;;
22205;SDS011;11272;50.104;8.754;2024-03-29T15:56:13;1.20;;;1.10;;
22205;SDS011;11272;50.104;8.754;2024-03-29T15:58:39;3.50;;;1.30;;
22205;SDS011;11272;50.104;8.754;2024-03-29T16:01:08;4.30;;;1.50;;
22205;SDS011;11272;50.104;8.754;2024-03-29T16:03:34;6.63;;;1.30;;
22205;SDS011;11272;50.104;8.754;2024-03-29T16:06:00;3.20;;;1.40;;
22205;SDS011;11272;50.104;8.754;2024-03-29T16:08:27;1.27;;;1.13;;
22205;SDS011;11272;50.104;8.754;2024-03-29T16:13:23;4.87;;;1.63;;
22205;SDS011;11272;50.104;8.754;2024-03-29T16:15:53;1.87;;;0.90;;
22205;SDS011;11272;50.104;8.754;2024-03-29T16:18:23;4.43;;;1.53;;
22205;SDS011;11272;50.104;8.754;2024-03-29T16:20:50;3.63;;;1.63;;
22205;SDS011;11272;50.104;8.754;2024-03-29T16:23:17;2.20;;;1.60;;
22205;SDS011;11272;50.104;8.754;2024-03-29T16:25:43;2.50;;;1.17;;
22205;SDS011;11272;50.104;8.754;2024-03-29T16:28:10;3.27;;;1.93;;
22205;SDS011;11272;50.104;8.754;2024-03-29T16:30:43;2.80;;;1.90;;
22205;SDS011;11272;50.104;8.754;2024-03-29T16:33:19;3.53;;;2.47;;
22205;SDS011;11272;50.104;8.754;2024-03-29T16:35:45;4.60;;;2.40;;
22205;SDS011;11272;50.104;8.754;2024-03-29T16:41:03;3.83;;;2.43;;
22205;SDS011;11272;50.104;8.754;2024-03-29T16:43:31;7.03;;;2.60;;
22205;SDS011;11272;50.104;8.754;2024-03-29T16:45:59;7.17;;;4.70;;
22205;SDS011;11272;50.104;8.754;2024-03-29T16:48:24;6.83;;;3.70;;
22205;SDS011;11272;50.104;8.754;2024-03-29T16:50:55;4.93;;;2.77;;
22205;SDS011;11272;50.104;8.754;2024-03-29T16:53:35;5.53;;;3.50;;
22205;SDS011;11272;50.104;8.754;2024-03-29T16:56:00;3.93;;;3.20;;
22205;SDS011;11272;50.104;8.754;2024-03-29T16:58:30;4.30;;;2.90;;
22205;SDS011;11272;50.104;8.754;2024-03-29T17:00:58;6.50;;;2.93;;
22205;SDS011;11272;50.104;8.754;2024-03-29T17:03:26;3.83;;;2.70;;
22205;SDS011;11272;50.104;8.754;2024-03-29T17:05:54;5.97;;;3.80;;
22205;SDS011;11272;50.104;8.754;2024-03-29T17:08:19;6.77;;;3.87;;
22205;SDS011;11272;50.104;8.754;2024-03-29T17:10:47;6.70;;;3.43;;
22205;SDS011;11272;50.104;8.754;2024-03-29T17:13:12;5.97;;;3.43;;
22205;SDS011;11272;50.104;8.754;2024-03-29T17:15:42;8.10;;;3.63;;
22205;SDS011;11272;50.104;8.754;2024-03-29T17:18:12;8.13;;;5.00;;
22205;SDS011;11272;50.104;8.754;2024-03-29T17:20:38;5.17;;;3.73;;
22205;SDS011;11272;50.104;8.754;2024-03-29T17:23:13;5.77;;;3.67;;
22205;SDS011;11272;50.104;8.754;2024-03-29T17:25:43;6.07;;;3.60;;
22205;SDS011;11272;50.104;8.754;2024-03-29T17:28:09;7.27;;;3.90;;
22205;SDS011;11272;50.104;8.754;2024-03-29T17:30:34;7.43;;;4.30;;
22205;SDS011;11272;50.104;8.754;2024-03-29T17:33:07;15.63;;;6.67;;
22205;SDS011;11272;50.104;8.754;2024-03-29T17:35:33;13.60;;;6.00;;
22205;SDS011;11272;50.104;8.754;2024-03-29T17:38:00;14.53;;;6.47;;
22205;SDS011;11272;50.104;8.754;2024-03-29T17:40:27;9.20;;;5.93;;
22205;SDS011;11272;50.104;8.754;2024-03-29T17:42:58;9.03;;;6.20;;
22205;SDS011;11272;50.104;8.754;2024-03-29T17:45:23;10.80;;;5.37;;
22205;SDS011;11272;50.104;8.754;2024-03-29T17:47:49;10.40;;;5.37;;